Terminal Aerodrome Forecast
Issued by NWS Jackson, MS

Home | Current Version | Previous Version | Text Only | Print | Product List | Glossary On
Versions: 1 2 3 4 5 6 7 8 9 10 11 12 13 14 15 16
554
FTUS44 KJAN 221733
TAFHBG
TAF
KHBG 221733Z 2218/2318 36003KT P6SM OVC015
     FM222000 35004KT P6SM VCSH BKN025
     FM222200 35006KT 6SM -RA VCTS OVC035CB
     FM230000 00000KT 4SM -RA BR VCTS BKN025CB
     FM230800 00000KT 4SM -TSRA BR BKN015CB
     FM231100 32003KT 6SM -DZ BR BKN003
     FM231400 31004KT P6SM BKN008=

USA.gov is the U.S. government's official web portal to all federal, state and local government web resources and services.